Fabens, Texas
Current Conditions -  °F | °C
As of 3:41 PM on Saturday 22 Nov 2014 (Local Time) from MMCS Reporting Station
Few Clouds Few Clouds  
Wind Chill: 66°   Ceiling: Unl
Heat Index: 66°   Visibility: 10mi
Dew Point: 36°   Wind: 16mph
Humidity: 32%   Direction: 290°WNW
Pressure: 29.91"   Gusts: NA
Location:  31.51°N, 106.15°W
Report Text: MMCS 222241Z 29014KT 10SM FEW030 FEW200 19/02 A2991 RMK 8/401
Loading
Personal Weather Stations






























Interactive Weather Map New forecast layout! Learn more

10-Day Weather Forecast

Advertisements
Track Severe Weather on mobile